Latest Weather Observations for Darwin Airport

IDD60901

Issued at 1:51 pm CST Friday 1 July 2016 (issued every 10 minutes, with the page automatically refreshed every 10 minutes)

About weather observations | Map of Darwin area stations | Latest observations for Darwin area | Other Formats
Station Details ID: 014015 Name: DARWIN AIRPORT Lat: -12.42 Lon: 130.89 Height: 30.4 m
Data from the previous 72 hours. | See also: Recent months at Darwin Airport
Date/Time
CST
Temp
°C
App
Temp
°C
Dew
Point
°C
Rel
Hum
%
Delta-T
°C
Wind Press
QNH
hPa
Press
MSL
hPa
Rain since
9am
mm
Dir  Spd
km/h
Gust
km/h
Spd
kts
Gust
kts
01/01:30pm 32.0 26.7 7.0 21 13.6 ESE 24 33 13 18 1013.4 1013.2 0.0
01/01:00pm 31.3 26.7 8.1 23 12.8 ENE 22 30 12 16 1013.9 1013.7 0.0
01/12:30pm 30.6 24.3 7.5 23 12.6 E 30 41 16 22 1014.3 1014.1 0.0
01/12:00pm 30.3 23.7 7.8 24 12.3 ENE 32 39 17 21 1014.6 1014.4 0.0
01/11:30am 28.9 25.0 10.8 32 10.3 E 22 35 12 19 1015.2 1015.0 0.0
01/11:00am 28.2 23.6 12.4 37 9.2 E 28 39 15 21 1015.6 1015.4 0.0
01/10:30am 27.8 22.7 13.2 40 8.6 E 32 39 17 21 1016.0 1015.8 0.0
01/10:00am 26.6 21.9 13.1 43 7.9 E 30 39 16 21 1016.2 1016.0 0.0
01/09:30am 26.1 21.6 13.9 47 7.2 E 30 35 16 19 1016.4 1016.2 0.0
01/09:00am 25.3 22.3 14.8 52 6.3 ESE 24 32 13 17 1016.4 1016.2 0.0
01/08:30am 24.5 22.4 15.2 56 5.6 E 20 26 11 14 1016.1 1015.9 0.0
01/08:00am 23.7 21.5 15.0 58 5.2 E 20 26 11 14 1015.9 1015.7 0.0
01/07:30am 23.2 21.7 15.4 61 4.7 E 17 20 9 11 1015.7 1015.5 0.0
01/07:00am 23.3 21.5 15.5 61 4.7 E 19 20 10 11 1015.3 1015.1 0.0
01/06:30am 23.5 21.4 15.1 59 5.0 E 20 24 11 13 1015.0 1014.8 0.0
01/06:00am 23.6 22.4 15.1 59 5.1 ESE 15 19 8 10 1014.8 1014.6 0.0
01/05:30am 23.4 22.2 15.0 59 5.0 ESE 15 19 8 10 1014.4 1014.2 0.0
01/05:00am 23.0 21.6 15.5 62 4.5 ESE 17 19 9 10 1014.3 1014.1 0.0
01/04:30am 23.2 21.9 15.7 62 4.5 ESE 17 19 9 10 1014.1 1013.9 0.0
01/04:00am 23.5 22.7 16.1 63 4.5 SE 15 19 8 10 1014.0 1013.8 0.0
01/03:30am 24.2 24.1 16.9 63 4.5 SE 13 19 7 10 1014.1 1013.9 0.0
01/03:00am 24.3 24.3 18.1 68 3.9 SE 15 20 8 11 1014.0 1013.8 0.0
01/02:30am 24.2 25.4 20.0 77 2.7 S 13 15 7 8 1014.1 1013.9 0.0
01/02:00am 24.6 26.9 20.6 78 2.6 S 9 13 5 7 1014.2 1014.0 0.0
01/01:30am 24.7 26.8 20.9 79 2.5 S 11 15 6 8 1014.4 1014.2 0.0
01/01:00am 24.7 26.6 20.6 78 2.7 SSE 11 15 6 8 1014.4 1014.2 0.0
01/12:30am 24.6 26.9 22.1 86 1.7 S 13 17 7 9 1014.5 1014.3 0.0
01/12:00am 24.9 27.1 21.1 79 2.5 SSE 11 13 6 7 1014.5 1014.3 0.0
 
Date/Time
CST
Temp
°C
App
Temp
°C
Dew
Point
°C
Rel
Hum
%
Delta-T
°C
Wind Press
QNH
hPa
Press
MSL
hPa
Rain since
9am
mm
Dir  Spd
km/h
Gust
km/h
Spd
kts
Gust
kts
30/11:30pm 24.9 26.6 19.3 71 3.6 SSE 9 11 5 6 1014.4 1014.2 0.0
30/11:00pm 24.7 26.3 19.1 71 3.6 SE 9 11 5 6 1014.3 1014.1 0.0
30/10:30pm 23.8 25.9 20.1 80 2.4 ESE 9 11 5 6 1014.2 1014.0 0.0
30/10:00pm 24.4 26.8 20.1 77 2.8 SE 7 7 4 4 1014.2 1014.0 0.0
30/09:30pm 24.8 27.5 20.2 75 3.0 ENE 6 7 3 4 1014.1 1013.9 0.0
30/09:00pm 25.3 27.8 20.2 73 3.3 ENE 7 9 4 5 1014.1 1013.9 0.0
30/08:30pm 26.2 28.7 20.2 69 3.9 ENE 7 9 4 5 1013.9 1013.7 0.0
30/08:00pm 26.9 29.6 20.3 67 4.3 ENE 6 7 3 4 1013.5 1013.3 0.0
30/07:30pm 27.7 29.4 20.1 63 5.0 NE 11 15 6 8 1013.1 1012.9 0.0
30/07:00pm 28.1 30.9 20.9 65 4.8 NE 7 9 4 5 1012.7 1012.5 0.0
30/06:30pm 29.1 31.4 21.3 62 5.2 NW 11 15 6 8 1012.2 1012.0 0.0
30/06:00pm 29.5 31.0 20.6 58 5.9 NW 13 17 7 9 1011.9 1011.7 0.0
30/05:30pm 30.3 31.2 20.0 54 6.8 NNW 15 20 8 11 1011.7 1011.5 0.0
30/05:00pm 30.4 30.3 19.6 52 7.1 NNW 19 24 10 13 1011.6 1011.4 0.0
30/04:30pm 31.0 30.9 18.7 48 8.0 NNW 17 22 9 12 1011.7 1011.5 0.0
30/04:00pm 31.9 31.1 17.9 43 9.0 N 19 28 10 15 1011.7 1011.5 0.0
30/03:30pm 32.4 30.8 14.0 32 11.2 SE 15 26 8 14 1011.7 1011.5 0.0
30/03:00pm 32.3 29.8 14.1 33 11.1 E 20 35 11 19 1012.0 1011.8 0.0
30/02:30pm 32.0 30.1 14.1 33 10.9 E 17 28 9 15 1012.5 1012.3 0.0
30/02:00pm 31.8 30.0 14.5 35 10.6 ESE 17 30 9 16 1013.0 1012.8 0.0
30/01:30pm 31.3 29.2 15.3 38 9.9 E 20 32 11 17 1013.5 1013.3 0.0
30/01:00pm 31.5 29.0 15.1 37 10.1 SE 22 30 12 16 1014.2 1014.0 0.0
30/12:30pm 30.9 29.7 16.0 40 9.3 ESE 17 33 9 18 1014.8 1014.6 0.0
30/12:00pm 30.3 29.0 15.8 41 9.0 E 17 26 9 14 1015.2 1015.0 0.0
30/11:30am 30.1 28.2 15.7 41 8.9 E 20 30 11 16 1015.6 1015.4 0.0
30/11:00am 29.8 27.1 15.7 42 8.7 ESE 24 32 13 17 1016.0 1015.8 0.0
30/10:30am 28.7 26.3 15.5 44 8.1 ESE 22 30 12 16 1016.4 1016.2 0.0
30/10:00am 27.5 24.6 15.1 46 7.5 E 24 30 13 16 1016.7 1016.5 0.0
30/09:30am 26.8 23.5 15.1 48 7.1 E 26 30 14 16 1016.7 1016.5 0.0
30/09:00am 26.2 22.9 15.1 50 6.7 E 26 32 14 17 1016.6 1016.4 0.0
30/08:30am 25.1 22.4 14.7 52 6.2 E 22 30 12 16 1016.4 1016.2 0.0
30/08:00am 23.9 22.7 14.0 54 5.8 E 13 17 7 9 1015.9 1015.7 0.0
30/07:30am 22.5 21.4 14.3 59 4.8 ESE 13 17 7 9 1015.7 1015.5 0.0
30/07:00am 21.8 20.9 15.8 68 3.6 SE 15 19 8 10 1015.3 1015.1 0.0
30/06:30am 22.1 21.8 16.5 70 3.4 SE 13 17 7 9 1015.3 1015.1 0.0
30/06:00am 22.4 22.2 16.8 70 3.4 SE 13 17 7 9 1015.1 1014.9 0.0
30/05:30am 22.5 22.0 17.8 75 2.9 SE 17 19 9 10 1014.9 1014.7 0.0
30/05:00am 22.7 23.7 19.4 81 2.1 SSE 13 17 7 9 1014.7 1014.5 0.0
30/04:30am 22.2 23.8 20.8 92 0.9 SSE 13 17 7 9 1014.5 1014.3 0.0
30/04:00am 22.7 24.9 21.2 91 1.0 SSE 11 13 6 7 1014.6 1014.4 0.0
30/03:30am 22.8 25.5 21.3 91 1.0 SSE 9 11 5 6 1014.6 1014.4 0.0
30/03:00am 23.7 26.6 21.7 88 1.3 SSE 9 11 5 6 1015.0 1014.8 0.0
30/02:30am 24.0 26.9 21.7 87 1.5 S 9 11 5 6 1015.2 1015.0 0.0
30/02:00am 24.3 26.3 21.6 85 1.8 S 13 15 7 8 1015.3 1015.1 0.0
30/01:30am 24.5 27.3 21.6 84 1.9 SSE 9 11 5 6 1015.6 1015.4 0.0
30/01:00am 24.7 27.5 21.5 82 2.1 S 9 11 5 6 1015.7 1015.5 0.0
30/12:30am 24.6 26.5 21.4 82 2.1 S 13 15 7 8 1015.7 1015.5 0.0
30/12:00am 24.7 26.5 21.1 80 2.4 S 13 17 7 9 1015.9 1015.7 0.0
 
Date/Time
CST
Temp
°C
App
Temp
°C
Dew
Point
°C
Rel
Hum
%
Delta-T
°C
Wind Press
QNH
hPa
Press
MSL
hPa
Rain since
9am
mm
Dir  Spd
km/h
Gust
km/h
Spd
kts
Gust
kts
29/11:30pm 25.1 25.7 19.5 71 3.6 S 15 22 8 12 1015.8 1015.6 0.0
29/11:00pm 23.9 25.4 18.9 73 3.2 E 9 11 5 6 1015.5 1015.3 0.0
29/10:30pm 24.2 25.9 19.4 74 3.1 NE 9 11 5 6 1015.4 1015.2 0.0
29/10:00pm 24.4 26.3 19.7 75 3.0 ENE 9 9 5 5 1015.4 1015.2 0.0
29/09:30pm 24.2 26.4 19.7 76 2.9 ENE 7 9 4 5 1015.3 1015.1 0.0
29/09:00pm 24.7 26.7 19.9 74 3.1 ENE 9 11 5 6 1015.1 1014.9 0.0
29/08:30pm 25.2 26.7 19.8 72 3.5 NE 11 13 6 7 1014.8 1014.6 0.0
29/08:00pm 25.8 27.0 20.0 70 3.8 NE 13 17 7 9 1014.5 1014.3 0.0
29/07:30pm 26.3 26.6 19.7 67 4.3 NE 17 22 9 12 1014.1 1013.9 0.0
29/07:00pm 27.0 27.4 19.8 64 4.7 NNE 17 20 9 11 1013.6 1013.4 0.0
29/06:30pm 27.7 28.0 19.7 61 5.2 NNE 17 22 9 12 1013.2 1013.0 0.0
29/06:00pm 28.6 28.9 19.7 58 5.8 NNE 17 24 9 13 1012.7 1012.5 0.0
29/05:30pm 29.5 28.6 19.0 53 6.8 NNE 22 32 12 17 1012.5 1012.3 0.0
29/05:00pm 30.1 29.4 19.4 52 7.0 N 22 30 12 16 1012.1 1011.9 0.0
29/04:30pm 32.1 30.8 17.2 41 9.5 N 20 32 11 17 1011.9 1011.7 0.0
29/04:00pm 32.4 29.8 13.8 32 11.3 ENE 20 32 11 17 1011.7 1011.5 0.0
29/03:30pm 32.3 30.3 13.9 32 11.2 E 17 26 9 14 1011.9 1011.7 0.0
29/03:00pm 32.7 29.9 14.2 32 11.3 ESE 22 32 12 17 1012.1 1011.9 0.0
29/02:30pm 32.1 28.1 14.0 33 11.0 E 28 37 15 20 1012.4 1012.2 0.0
29/02:00pm 31.7 28.8 15.2 36 10.2 E 24 33 13 18 1012.8 1012.6 0.0
29/01:30pm 31.9 28.7 15.3 36 10.3 ENE 26 41 14 22 1013.4 1013.2 0.0
29/01:07pm 31.3 27.5 14.8 36 10.1 ENE 28 54 15 29 1014.0 1013.8 0.0
29/01:00pm 31.3 27.6 15.1 37 10.0 E 28 39 15 21 1014.3 1014.1 0.0
29/12:30pm 30.8 27.3 14.6 37 9.9 E 26 35 14 19 1014.8 1014.6 0.0
29/12:00pm 30.6 26.4 13.6 35 10.2 E 28 37 15 20 1015.4 1015.2 0.0
29/11:30am 29.5 25.0 12.7 35 9.9 ESE 28 37 15 20 1015.9 1015.7 0.0
29/11:00am 28.1 23.9 13.4 40 8.7 ESE 28 33 15 18 1016.2 1016.0 0.0
29/10:30am 26.6 21.9 13.1 43 7.9 ESE 30 35 16 19 1016.4 1016.2 0.0
29/10:00am 26.3 21.1 13.4 45 7.6 ESE 33 44 18 24 1016.8 1016.6 0.0
29/09:30am 25.6 21.7 14.3 49 6.7 ESE 28 41 15 22 1016.9 1016.7 0.0
29/09:00am 25.1 20.8 14.5 51 6.3 ESE 30 41 16 22 1016.9 1016.7 0.0
29/08:30am 24.4 20.9 15.6 58 5.3 ESE 28 35 15 19 1016.8 1016.6 0.0
29/08:00am 23.5 21.1 16.3 64 4.4 ESE 24 30 13 16 1016.6 1016.4 0.0
29/07:30am 22.8 21.2 16.0 65 4.1 E 19 22 10 12 1016.3 1016.1 0.0
29/07:00am 22.8 21.8 16.6 68 3.8 E 17 20 9 11 1016.1 1015.9 0.0
29/06:30am 23.0 21.6 16.6 67 3.9 E 19 22 10 12 1015.7 1015.5 0.0
29/06:00am 23.3 21.9 16.6 66 4.1 E 19 24 10 13 1015.5 1015.3 0.0
29/05:30am 23.5 22.0 16.8 66 4.1 E 20 26 11 14 1015.2 1015.0 0.0
29/05:00am 23.8 22.0 17.0 65 4.2 E 22 28 12 15 1015.0 1014.8 0.0
29/04:30am 24.2 22.3 16.7 63 4.6 E 22 28 12 15 1014.8 1014.6 0.0
29/04:00am 24.3 21.9 16.5 61 4.8 E 24 32 13 17 1015.0 1014.8 0.0
29/03:30am 24.7 21.5 16.4 60 5.1 E 28 37 15 20 1014.9 1014.7 0.0
29/03:00am 25.0 21.6 15.8 56 5.6 E 28 35 15 19 1015.0 1014.8 0.0
29/02:30am 25.5 23.4 15.2 53 6.2 ESE 20 28 11 15 1015.0 1014.8 0.0
29/02:00am 25.5 24.7 16.2 56 5.7 SE 15 20 8 11 1015.1 1014.9 0.0
29/01:30am 25.5 26.4 18.4 65 4.5 SE 11 13 6 7 1015.1 1014.9 0.0
29/01:00am 25.6 27.3 20.9 75 3.1 SSE 13 19 7 10 1015.1 1014.9 0.0
29/12:30am 25.2 28.1 22.5 85 1.8 S 11 13 6 7 1015.2 1015.0 0.0
29/12:00am 25.7 28.5 23.0 85 1.8 S 13 17 7 9 1015.3 1015.1 0.0
 
Date/Time
CST
Temp
°C
App
Temp
°C
Dew
Point
°C
Rel
Hum
%
Delta-T
°C
Wind Press
QNH
hPa
Press
MSL
hPa
Rain since
9am
mm
Dir  Spd
km/h
Gust
km/h
Spd
kts
Gust
kts
28/11:30pm 26.0 28.5 22.4 80 2.4 S 13 17 7 9 1015.2 1015.0 0.0
28/11:00pm 26.5 28.5 21.5 74 3.3 S 13 17 7 9 1015.3 1015.1 0.0
28/10:30pm 26.6 29.0 21.5 73 3.4 S 11 15 6 8 1015.3 1015.1 0.0
28/10:00pm 26.4 29.3 21.1 72 3.5 SE 7 11 4 6 1014.8 1014.6 0.0
28/09:30pm 25.8 28.9 21.4 76 2.9 ENE 7 9 4 5 1014.5 1014.3 0.0
28/09:00pm 25.9 28.5 21.2 75 3.1 ENE 9 11 5 6 1014.3 1014.1 0.0
28/08:30pm 26.5 28.8 21.4 73 3.4 NE 11 13 6 7 1014.1 1013.9 0.0
28/08:00pm 27.1 29.9 21.6 72 3.7 NNE 9 11 5 6 1013.7 1013.5 0.0
28/07:30pm 27.6 30.0 21.5 69 4.1 NNE 11 15 6 8 1013.4 1013.2 0.0
28/07:00pm 28.4 30.1 21.7 67 4.5 NNE 15 17 8 9 1013.1 1012.9 0.0
28/06:30pm 29.6 30.6 21.1 60 5.7 NNE 17 24 9 13 1012.8 1012.6 0.0
28/06:00pm 31.5 30.7 17.0 41 9.2 NE 17 22 9 12 1012.4 1012.2 0.0
28/05:30pm 32.0 30.7 16.9 40 9.6 E 19 28 10 15 1012.1 1011.9 0.0
28/05:00pm 32.0 30.7 16.7 40 9.7 ESE 19 30 10 16 1011.9 1011.7 0.0
28/04:30pm 32.3 30.7 16.5 38 10.0 ESE 20 30 11 16 1011.7 1011.5 0.0
28/04:00pm 32.2 30.2 16.5 39 9.9 ESE 22 32 12 17 1011.6 1011.4 0.0
28/03:30pm 33.0 30.6 17.4 39 10.0 E 26 35 14 19 1011.6 1011.4 0.0
28/03:00pm 32.0 29.7 17.5 42 9.3 E 26 35 14 19 1011.8 1011.6 0.0
28/02:30pm 32.4 29.7 17.6 41 9.5 E 28 35 15 19 1012.0 1011.8 0.0
28/02:00pm 32.7 29.3 17.8 41 9.6 E 32 43 17 23 1012.3 1012.1 0.0

Latest Capital City Observations: Canberra | Sydney | Melbourne | Brisbane | Adelaide | Perth | Hobart | Darwin

Other Formats:

Comma delimited format used in spreadsheet applications
http://www.bom.gov.au/fwo/IDD60901/IDD60901.94120.axf

JavaScript Object Notation format (JSON) in row-major order
http://www.bom.gov.au/fwo/IDD60901/IDD60901.94120.json